CYHU/YHU METAR and TAF weather

Enter ICAO airport designator
Station Type Date Time Source
CYHU METAR 2020/08/15 10:00 UTC NOAA

CYHU 151000Z AUTO 02006KT 9SM FEW080 14/13 A3009 RMK SLP192


Station Type Date Time Source
CYHU Decoded METAR 2020/08/15 10:00 UTC NOAA

Saint Hubert Airport , Canada (CYHU) 45-31N 073-25W
Aug 15, 2020 - 06:00 AM EDT / 2020.08.15 1000 UTC
Wind: from the NNE (020 degrees) at 7 MPH (6 KT):0
Visibility: 9 mile(s):0
Sky conditions: mostly clear
Temperature: 57 F (14 C)
Dew Point: 55 F (13 C)
Relative Humidity: 93%
Pressure (altimeter): 30.09 in. Hg (1018 hPa)
ob: CYHU 151000Z AUTO 02006KT 9SM FEW080 14/13 A3009 RMK SLP192
cycle: 10

Station Type Date Time Source
CYHU TAF 2020/08/15 06:42 UTC NOAA

TAF CYHU 150538Z 1506/1606 03008KT P6SM FEW060
FM151500 07010KT P6SM FEW060
BECMG 1604/1606 16010KT
RMK FCST BASED ON AUTO OBS. NXT FCST BY 151200Z

Example: see airport list